Bienville, Louisiana
Current Conditions -  °F | °C
As of 8:15 PM on Saturday 22 Nov 2014 (Local Time) from KRSN Reporting Station
Broken Clouds Broken Clouds  
Wind Chill: 64°   Ceiling: 4900
Heat Index: 64°   Visibility: 10mi
Dew Point: 58°   Wind: 5mph
Humidity: 83%   Direction: 130°SE
Pressure: 29.95"   Gusts: NA
Location:  32.36°N, 92.98°W
Report Text: KRSN 230215Z AUTO 13004KT 10SM SCT032 BKN049 18/15 A2995 RMK AO2 LTG DSNT SW T01750146
Loading
Personal Weather Stations






























Interactive Weather Map New forecast layout! Learn more

10-Day Weather Forecast

Advertisements
Track Severe Weather on mobile